Time;durP1;ratioP1;P1;durP2;ratioP2;P2;SDS_P1;SDS_P2;PMS_P1;PMS_P2;Temp;Humidity;BMP_temperature;BMP_pressure;BME280_temperature;BME280_humidity;BME280_pressure;Samples;Min_cycle;Max_cycle;Signal;HPM_P1;HPM_P2
2023/08/22 00:00:46;;;;;;;12.52;3.50;;;;;;;21.77;57.88;100752.38;5030348;28;20726;-64
2023/08/22 00:03:14;;;;;;;5.93;3.85;;;;;;;21.69;58.17;100760.63;5030110;28;20212;-64
2023/08/22 00:05:42;;;;;;;6.22;3.60;;;;;;;21.63;58.50;100765.28;5030394;28;20246;-64
2023/08/22 00:08:12;;;;;;;8.85;3.70;;;;;;;21.58;58.56;100760.25;5030582;28;20742;-64
2023/08/22 00:10:40;;;;;;;7.53;3.60;;;;;;;21.54;58.69;100761.31;5016229;28;20233;-66
2023/08/22 00:13:07;;;;;;;6.25;3.38;;;;;;;21.54;58.58;100756.09;5030714;28;20210;-62
2023/08/22 00:15:36;;;;;;;6.95;3.17;;;;;;;21.52;58.55;100759.69;5031690;28;20272;-63
2023/08/22 00:18:04;;;;;;;6.07;3.67;;;;;;;21.52;58.16;100757.91;5034218;28;20339;-63
2023/08/22 00:20:32;;;;;;;4.00;3.25;;;;;;;21.47;57.91;100749.41;5034085;28;20222;-64
2023/08/22 00:23:00;;;;;;;6.88;3.00;;;;;;;21.49;58.04;100759.81;5028308;28;20293;-64
2023/08/22 00:25:30;;;;;;;6.20;3.47;;;;;;;21.49;57.99;100763.28;5033254;28;20721;-65
2023/08/22 00:27:58;;;;;;;7.00;3.22;;;;;;;21.48;58.10;100764.22;5033918;28;20202;-62
2023/08/22 00:30:26;;;;;;;5.28;3.15;;;;;;;21.51;57.72;100765.88;5033948;28;20728;-64
2023/08/22 00:32:54;;;;;;;4.60;3.05;;;;;;;21.54;57.49;100763.94;5030155;28;20239;-65
2023/08/22 00:35:24;;;;;;;6.13;3.50;;;;;;;21.52;57.07;100763.16;5023236;28;20203;-65
2023/08/22 00:37:52;;;;;;;4.53;2.97;;;;;;;21.55;56.92;100756.94;5019936;28;20864;-65
2023/08/22 00:40:20;;;;;;;4.05;2.75;;;;;;;21.58;56.72;100751.56;5033160;28;20206;-63
2023/08/22 00:42:50;;;;;;;5.20;3.00;;;;;;;21.59;56.41;100754.09;5033614;28;20665;-62
2023/08/22 00:45:18;;;;;;;5.13;3.15;;;;;;;21.58;56.61;100755.03;5033509;28;20250;-63
2023/08/22 00:47:46;;;;;;;7.72;3.15;;;;;;;21.54;56.64;100742.97;5033521;28;20203;-61
2023/08/22 00:50:14;;;;;;;3.28;2.33;;;;;;;21.52;56.35;100744.78;5033321;28;20217;-64
2023/08/22 00:52:42;;;;;;;6.15;2.63;;;;;;;21.51;56.11;100750.97;5033265;28;20222;-62
2023/08/22 00:55:11;;;;;;;5.70;2.72;;;;;;;21.44;55.98;100744.31;5033299;28;20238;-61
2023/08/22 00:57:39;;;;;;;4.43;2.67;;;;;;;21.46;56.08;100747.69;5033458;28;20628;-63
2023/08/22 01:00:10;;;;;;;4.78;2.22;;;;;;;21.46;55.83;100747.69;5032688;28;20673;-67
2023/08/22 01:02:39;;;;;;;3.72;2.10;;;;;;;21.43;55.94;100742.63;5033041;28;20276;-64
2023/08/22 01:05:09;;;;;;;4.95;2.10;;;;;;;21.38;56.05;100739.34;5019166;28;20207;-63
2023/08/22 01:07:42;;;;;;;2.75;2.00;;;;;;;21.35;56.13;100740.31;5032977;28;20203;-62
2023/08/22 01:10:16;;;;;;;4.35;2.50;;;;;;;21.32;56.15;100732.56;5030709;28;20211;-61
2023/08/22 01:12:52;;;;;;;5.45;2.38;;;;;;;21.35;56.29;100737.69;5032496;28;20577;-64
2023/08/22 01:15:25;;;;;;;10.00;2.10;;;;;;;21.37;55.90;100730.63;5032710;28;20206;-62
2023/08/22 01:17:54;;;;;;;5.22;2.38;;;;;;;21.36;55.62;100730.69;5032681;28;20297;-63
2023/08/22 01:20:24;;;;;;;3.75;2.10;;;;;;;21.37;55.68;100724.53;5032713;28;20203;-61
2023/08/22 01:22:54;;;;;;;3.90;2.38;;;;;;;21.35;55.57;100728.97;5032603;28;20207;-62
2023/08/22 01:25:22;;;;;;;3.25;2.40;;;;;;;21.32;55.71;100723.84;5030924;28;20207;-62
2023/08/22 01:27:58;;;;;;;4.40;2.30;;;;;;;21.29;55.71;100731.88;5030192;28;20198;-62
2023/08/22 01:30:33;;;;;;;3.95;2.17;;;;;;;21.26;55.86;100729.38;5032844;28;20206;-62
2023/08/22 01:33:06;;;;;;;4.32;1.95;;;;;;;21.26;55.37;100732.84;5031764;28;20233;-62
2023/08/22 01:35:36;;;;;;;4.65;2.20;;;;;;;21.19;55.67;100731.41;5032757;28;20280;-62
2023/08/22 01:38:07;;;;;;;5.63;2.28;;;;;;;21.21;55.92;100734.84;5032542;28;20209;-63
2023/08/22 01:40:36;;;;;;;4.65;2.08;;;;;;;21.23;55.76;100728.56;5032796;28;20215;-62
2023/08/22 01:43:04;;;;;;;2.63;1.90;;;;;;;21.22;55.41;100734.75;5032140;28;20269;-67
2023/08/22 01:45:32;;;;;;;2.92;2.05;;;;;;;21.19;55.08;100729.63;5032478;28;20633;-64
2023/08/22 01:48:00;;;;;;;4.85;1.95;;;;;;;21.18;55.31;100732.34;5032365;28;21001;-62
2023/08/22 01:50:28;;;;;;;3.97;2.35;;;;;;;21.15;55.04;100733.31;5032349;28;20249;-62
2023/08/22 01:52:57;;;;;;;3.50;1.90;;;;;;;21.12;55.05;100727.38;5032345;28;20221;-63
2023/08/22 01:55:27;;;;;;;2.45;2.00;;;;;;;21.10;55.27;100739.66;5032402;28;20245;-64
2023/08/22 01:57:55;;;;;;;2.88;2.10;;;;;;;21.13;55.47;100744.78;5031654;28;20681;-62
2023/08/22 02:00:23;;;;;;;5.30;2.13;;;;;;;21.18;55.36;100737.59;5031830;28;20256;-65
2023/08/22 02:02:51;;;;;;;4.10;1.70;;;;;;;21.23;55.48;100741.69;5020674;28;20623;-63
2023/08/22 02:05:19;;;;;;;3.70;1.60;;;;;;;21.29;55.58;100744.97;5029993;28;20225;-62
2023/08/22 02:07:48;;;;;;;3.47;1.50;;;;;;;21.29;54.67;100737.09;5031742;28;20277;-62
2023/08/22 02:10:16;;;;;;;2.90;1.90;;;;;;;21.26;54.32;100738.09;5031879;28;20210;-63
2023/08/22 02:12:45;;;;;;;2.20;1.70;;;;;;;21.20;54.44;100741.81;5032123;28;20647;-61
2023/08/22 02:15:13;;;;;;;3.10;1.67;;;;;;;21.18;54.34;100741.06;5031922;28;20207;-63
2023/08/22 02:17:41;;;;;;;3.50;1.88;;;;;;;21.19;54.76;100745.38;5031985;28;20577;-62
2023/08/22 02:20:10;;;;;;;3.03;2.17;;;;;;;21.22;55.56;100744.38;5031503;28;20203;-62
2023/08/22 02:22:39;;;;;;;3.83;1.90;;;;;;;21.24;56.21;100747.78;5030871;28;20202;-62
2023/08/22 02:25:08;;;;;;;4.68;2.45;;;;;;;21.22;56.29;100753.09;5018631;28;20265;-63
2023/08/22 02:27:36;;;;;;;4.25;1.83;;;;;;;21.17;56.40;100757.69;5031066;28;20676;-66
2023/08/22 02:30:08;;;;;;;5.30;2.40;;;;;;;21.08;56.79;100752.84;5030938;28;20210;-64
2023/08/22 02:32:36;;;;;;;3.70;2.10;;;;;;;20.99;56.79;100758.50;5031149;28;20238;-62
2023/08/22 02:35:06;;;;;;;3.53;2.13;;;;;;;20.88;57.34;100753.72;5031806;28;20608;-63
2023/08/22 02:37:34;;;;;;;5.90;2.20;;;;;;;20.80;57.52;100766.28;5031079;28;20210;-62
2023/08/22 02:40:05;;;;;;;4.53;2.33;;;;;;;20.76;57.76;100756.84;5031659;28;20203;-61
2023/08/22 02:42:33;;;;;;;2.90;1.95;;;;;;;20.68;57.74;100748.47;5031372;28;20207;-62
2023/08/22 02:45:01;;;;;;;3.47;2.15;;;;;;;20.74;57.79;100761.31;5012175;28;20250;-63
2023/08/22 02:47:32;;;;;;;5.95;2.00;;;;;;;20.79;57.80;100755.88;5022590;28;20226;-61
2023/08/22 02:50:00;;;;;;;5.32;2.30;;;;;;;20.80;57.67;100757.56;5031017;28;20226;-62
2023/08/22 02:52:29;;;;;;;3.67;2.30;;;;;;;20.83;57.73;100760.06;5031087;28;20203;-65
2023/08/22 02:54:57;;;;;;;6.60;2.42;;;;;;;20.85;57.77;100755.63;5028418;28;20213;-63
2023/08/22 02:57:25;;;;;;;3.78;2.10;;;;;;;20.89;57.87;100768.53;5020413;28;20356;-63
2023/08/22 02:59:53;;;;;;;4.90;2.60;;;;;;;20.90;57.95;100769.38;5029222;28;20280;-61
2023/08/22 03:02:20;;;;;;;4.50;2.20;;;;;;;20.85;58.05;100772.19;5018930;28;20572;-62
2023/08/22 03:04:50;;;;;;;5.40;2.35;;;;;;;20.81;58.00;100764.53;5017133;28;20207;-61
2023/08/22 03:07:18;;;;;;;6.13;2.20;;;;;;;20.80;58.21;100762.81;5017858;28;20578;-63
2023/08/22 03:09:46;;;;;;;4.80;2.40;;;;;;;20.76;57.96;100759.47;5031151;28;20579;-63
2023/08/22 03:12:14;;;;;;;5.28;2.53;;;;;;;20.71;58.54;100751.81;5031049;28;20572;-63
2023/08/22 03:14:43;;;;;;;3.85;2.30;;;;;;;20.67;58.82;100752.88;5031113;28;20633;-68
2023/08/22 03:17:12;;;;;;;3.00;2.15;;;;;;;20.64;58.44;100750.38;5030995;28;20194;-63
2023/08/22 03:19:40;;;;;;;2.72;2.13;;;;;;;20.62;58.99;100748.72;5030730;28;20199;-61
2023/08/22 03:22:09;;;;;;;7.05;2.70;;;;;;;20.53;58.92;100744.72;5028712;28;20727;-63
2023/08/22 03:24:37;;;;;;;4.97;2.78;;;;;;;20.49;59.17;100748.38;5019867;28;20225;-63
2023/08/22 03:27:05;;;;;;;3.90;2.33;;;;;;;20.45;59.53;100752.03;5030246;28;20313;-63
2023/08/22 03:29:33;;;;;;;8.88;2.78;;;;;;;20.39;59.47;100758.34;5030584;28;20202;-62
2023/08/22 03:32:01;;;;;;;4.35;2.72;;;;;;;20.32;59.68;100753.44;5030598;28;20242;-61
2023/08/22 03:34:29;;;;;;;5.53;2.85;;;;;;;20.24;60.15;100762.44;5030926;28;20293;-64
2023/08/22 03:36:57;;;;;;;5.47;2.97;;;;;;;20.21;60.16;100759.97;5030949;28;20202;-61
2023/08/22 03:39:26;;;;;;;5.53;3.10;;;;;;;20.16;60.81;100754.06;5030750;28;20726;-62
2023/08/22 03:41:54;;;;;;;4.15;2.40;;;;;;;20.13;60.78;100755.94;5030887;28;20229;-62
2023/08/22 03:44:22;;;;;;;3.15;2.72;;;;;;;20.13;60.94;100758.56;5030517;28;20203;-62
2023/08/22 03:46:50;;;;;;;5.55;3.28;;;;;;;20.13;60.83;100763.78;5016351;28;20229;-64
2023/08/22 03:49:18;;;;;;;4.13;2.47;;;;;;;20.09;60.92;100757.81;5032478;28;20263;-63
2023/08/22 03:51:46;;;;;;;5.60;2.70;;;;;;;20.09;61.08;100765.66;5034497;28;20650;-62
2023/08/22 03:54:14;;;;;;;4.82;3.00;;;;;;;20.09;61.19;100770.91;5025919;28;20257;-62
2023/08/22 03:56:43;;;;;;;4.70;2.95;;;;;;;20.08;61.52;100773.59;5034186;28;20203;-62
2023/08/22 03:59:11;;;;;;;8.15;3.53;;;;;;;20.06;61.65;100765.78;5034595;28;20211;-63
2023/08/22 04:01:39;;;;;;;8.32;3.50;;;;;;;20.05;61.42;100766.72;5034081;28;20214;-63
2023/08/22 04:04:07;;;;;;;4.38;3.50;;;;;;;20.01;61.68;100762.50;5026058;28;20207;-62
2023/08/22 04:06:35;;;;;;;7.18;3.13;;;;;;;20.01;61.81;100767.75;5029168;28;20206;-61
2023/08/22 04:09:03;;;;;;;4.40;3.22;;;;;;;20.00;62.06;100763.44;5027480;28;20219;-61
2023/08/22 04:11:31;;;;;;;7.25;4.07;;;;;;;19.99;61.94;100766.94;5027326;28;20305;-61
2023/08/22 04:14:00;;;;;;;9.68;3.83;;;;;;;19.92;62.10;100758.50;5034320;28;20661;-63
2023/08/22 04:16:28;;;;;;;7.18;4.40;;;;;;;19.87;62.25;100754.34;5034432;28;20575;-61
2023/08/22 04:18:56;;;;;;;5.82;3.53;;;;;;;19.84;62.32;100755.31;5033985;28;20195;-62
2023/08/22 04:21:24;;;;;;;6.85;3.47;;;;;;;19.84;62.43;100754.47;5033915;28;20203;-66
2023/08/22 04:23:52;;;;;;;6.25;3.95;;;;;;;19.84;63.02;100754.47;5021035;28;20211;-61
2023/08/22 04:26:20;;;;;;;7.63;2.97;;;;;;;19.85;62.77;100758.81;5033100;28;20245;-62
2023/08/22 04:28:48;;;;;;;6.90;3.65;;;;;;;19.88;62.57;100751.66;5033539;28;20222;-62
2023/08/22 04:31:18;;;;;;;5.18;3.80;;;;;;;19.99;62.66;100759.09;5033396;28;20325;-63
2023/08/22 04:33:46;;;;;;;5.28;3.75;;;;;;;20.04;62.30;100751.94;5033000;28;20293;-62
2023/08/22 04:36:13;;;;;;;8.23;3.78;;;;;;;20.13;62.01;100755.94;5019825;28;20211;-63
2023/08/22 04:38:43;;;;;;;6.03;3.45;;;;;;;20.22;62.31;100745.97;5034042;28;20276;-62
2023/08/22 04:41:10;;;;;;;7.70;3.58;;;;;;;20.40;61.70;100757.47;5033522;28;20207;-63
2023/08/22 04:43:38;;;;;;;6.78;3.83;;;;;;;20.53;61.08;100757.81;5025893;28;20222;-61
2023/08/22 04:46:06;;;;;;;10.20;3.30;;;;;;;20.61;60.40;100762.75;5027520;28;20230;-65
2023/08/22 04:48:36;;;;;;;5.55;3.25;;;;;;;20.65;60.55;100765.16;5033385;28;20231;-62
2023/08/22 04:51:04;;;;;;;7.63;3.83;;;;;;;20.74;60.58;100766.56;5033558;28;20739;-62
2023/08/22 04:53:32;;;;;;;7.68;3.88;;;;;;;20.84;60.08;100769.63;5033429;28;20276;-62
2023/08/22 04:56:00;;;;;;;6.13;3.95;;;;;;;20.93;59.84;100769.25;5022220;28;20682;-62
2023/08/22 04:58:28;;;;;;;6.57;3.33;;;;;;;21.02;59.79;100758.34;5030935;28;20386;-62
2023/08/22 05:00:56;;;;;;;7.55;3.97;;;;;;;21.14;59.19;100765.69;5032303;28;20230;-63
2023/08/22 05:03:24;;;;;;;7.97;3.25;;;;;;;21.21;58.89;100761.88;5032372;28;20206;-63
2023/08/22 05:05:54;;;;;;;5.50;3.03;;;;;;;21.31;58.83;100769.31;5033383;28;20234;-63
2023/08/22 05:08:22;;;;;;;7.00;3.53;;;;;;;21.41;58.61;100773.28;5032707;28;20310;-61
2023/08/22 05:10:50;;;;;;;7.82;3.50;;;;;;;21.55;58.47;100770.03;5033118;28;20206;-63
2023/08/22 05:13:18;;;;;;;6.07;3.28;;;;;;;21.69;57.49;100775.50;5033246;28;20681;-65
2023/08/22 05:15:46;;;;;;;4.22;2.72;;;;;;;21.79;56.79;100768.03;5019420;28;20206;-61
2023/08/22 05:18:14;;;;;;;5.45;3.00;;;;;;;21.95;56.23;100782.16;5033037;28;20199;-61
2023/08/22 05:20:42;;;;;;;5.05;3.08;;;;;;;22.05;55.62;100775.53;5032733;28;20717;-62
2023/08/22 05:23:11;;;;;;;7.32;2.95;;;;;;;22.20;55.38;100776.59;5032817;28;20203;-62
2023/08/22 05:25:39;;;;;;;5.50;2.67;;;;;;;22.41;54.56;100770.31;5031859;28;20536;-62
2023/08/22 05:28:07;;;;;;;7.22;2.97;;;;;;;22.69;53.87;100773.38;5032680;28;20211;-62
2023/08/22 05:30:37;;;;;;;6.22;2.92;;;;;;;22.97;52.80;100780.72;5020850;28;20219;-63
2023/08/22 05:33:07;;;;;;;7.25;2.83;;;;;;;23.17;52.21;100771.81;5031795;28;20662;-61
2023/08/22 05:35:35;;;;;;;3.63;2.50;;;;;;;23.41;51.60;100775.75;5031448;28;20206;-65
2023/08/22 05:38:03;;;;;;;6.50;2.83;;;;;;;23.69;51.05;100774.31;5032033;28;20226;-62
2023/08/22 05:40:32;;;;;;;5.65;2.63;;;;;;;23.84;50.16;100771.69;5030858;28;20199;-62
2023/08/22 05:43:00;;;;;;;4.28;3.00;;;;;;;23.85;49.81;100778.63;5032449;28;20582;-63
2023/08/22 05:45:28;;;;;;;7.97;2.65;;;;;;;23.77;49.92;100780.00;5031998;28;20202;-61
2023/08/22 05:47:56;;;;;;;5.22;2.35;;;;;;;23.72;49.99;100782.88;5032029;28;20219;-62
2023/08/22 05:50:24;;;;;;;4.35;2.47;;;;;;;23.66;50.13;100788.44;5024905;28;20203;-63
2023/08/22 05:52:52;;;;;;;5.13;2.45;;;;;;;23.61;50.15;100786.06;5026056;28;20260;-63
2023/08/22 05:55:20;;;;;;;3.88;2.25;;;;;;;23.49;50.37;100781.47;5031937;28;20213;-63
2023/08/22 05:57:49;;;;;;;4.57;2.63;;;;;;;23.46;50.51;100781.63;5032330;28;20230;-64
2023/08/22 06:00:17;;;;;;;3.47;1.98;;;;;;;23.49;50.28;100781.47;5031910;28;20210;-63
2023/08/22 06:02:45;;;;;;;4.65;1.88;;;;;;;24.00;49.60;100790.09;5032089;28;20214;-62
2023/08/22 06:05:14;;;;;;;3.38;2.08;;;;;;;25.43;47.11;100787.91;5031713;28;20199;-62
2023/08/22 06:07:42;;;;;;;5.05;1.73;;;;;;;27.23;43.10;100777.09;5031813;28;20214;-62
2023/08/22 06:10:10;;;;;;;3.60;1.90;;;;;;;29.29;39.09;100773.41;5017914;28;20761;-64
2023/08/22 06:12:38;;;;;;;6.00;2.10;;;;;;;31.29;33.58;100767.47;5030599;28;20212;-63
2023/08/22 06:15:09;;;;;;;3.65;1.75;;;;;;;33.08;30.84;100762.88;5029923;28;20203;-62
2023/08/22 06:17:38;;;;;;;2.58;1.58;;;;;;;34.40;28.68;100761.56;5024553;28;20217;-62
2023/08/22 06:20:08;;;;;;;2.72;1.88;;;;;;;35.74;25.97;100756.63;5029948;28;20195;-65
2023/08/22 06:22:36;;;;;;;5.63;1.92;;;;;;;36.99;23.87;100752.81;5031106;28;20210;-63
2023/08/22 06:25:05;;;;;;;3.13;1.92;;;;;;;37.79;22.92;100749.97;5032027;28;20657;-63
2023/08/22 06:27:33;;;;;;;3.85;1.83;;;;;;;38.68;22.14;100755.66;5031248;28;20210;-63
2023/08/22 06:30:02;;;;;;;3.95;1.90;;;;;;;39.70;20.80;100750.44;5030796;28;20223;-70
2023/08/22 06:32:31;;;;;;;5.00;1.92;;;;;;;40.47;19.74;100736.22;5031274;28;20256;-64
2023/08/22 06:35:00;;;;;;;4.65;2.20;;;;;;;41.27;19.00;100751.03;5017892;28;20206;-64
2023/08/22 06:37:28;;;;;;;4.53;2.00;;;;;;;41.85;18.53;100744.41;5031431;28;20255;-64
2023/08/22 06:39:56;;;;;;;5.20;1.83;;;;;;;42.25;17.48;100750.72;5026717;28;20589;-63
2023/08/22 06:42:24;;;;;;;4.60;1.38;;;;;;;42.36;17.38;100762.81;5022656;28;20668;-65
2023/08/22 06:44:52;;;;;;;5.90;2.15;;;;;;;42.63;16.63;100761.72;5029348;28;20267;-64
2023/08/22 06:47:23;;;;;;;6.43;1.73;;;;;;;42.73;16.89;100760.50;5031166;28;20209;-62
2023/08/22 06:49:52;;;;;;;4.65;1.80;;;;;;;42.56;16.96;100763.59;5030883;28;20317;-63
2023/08/22 06:52:20;;;;;;;3.38;1.70;;;;;;;42.74;17.24;100764.84;5031179;28;20202;-63
2023/08/22 06:54:48;;;;;;;4.20;2.13;;;;;;;42.77;17.25;100769.88;5031505;28;20252;-68
2023/08/22 06:57:16;;;;;;;3.85;1.88;;;;;;;42.60;17.50;100770.25;5031524;28;20224;-63
2023/08/22 06:59:44;;;;;;;5.13;1.90;;;;;;;42.83;16.74;100764.44;5030834;28;20201;-62
2023/08/22 07:02:12;;;;;;;5.53;2.58;;;;;;;43.10;16.33;100759.78;5030797;28;20205;-63
2023/08/22 07:04:40;;;;;;;4.53;2.20;;;;;;;43.20;16.20;100767.47;5030962;28;20214;-63
2023/08/22 07:07:10;;;;;;;4.80;2.20;;;;;;;43.46;16.34;100757.53;5030783;28;20206;-65
2023/08/22 07:09:38;;;;;;;4.57;1.85;;;;;;;43.43;16.09;100764.22;5030785;28;20256;-63
2023/08/22 07:12:06;;;;;;;4.13;1.80;;;;;;;43.22;16.64;100754.50;5017213;28;20673;-65
2023/08/22 07:14:35;;;;;;;4.88;1.88;;;;;;;43.51;16.35;100753.16;5027879;28;20244;-62
2023/08/22 07:17:03;;;;;;;5.25;2.08;;;;;;;43.20;16.60;100753.06;5030604;28;20205;-62
2023/08/22 07:19:31;;;;;;;5.25;2.17;;;;;;;42.68;17.28;100753.00;5031006;28;20198;-63
2023/08/22 07:22:10;;;;;;;7.22;2.10;;;;;;;42.09;17.77;100757.34;5030851;28;20324;-63
2023/08/22 07:24:38;;;;;;;4.00;1.88;;;;;;;42.19;17.37;100757.75;5030756;28;20587;-63
2023/08/22 07:27:06;;;;;;;3.78;1.85;;;;;;;42.72;17.11;100761.50;5030841;28;20570;-63
2023/08/22 07:29:34;;;;;;;4.78;2.03;;;;;;;42.63;16.72;100759.00;5030398;28;20225;-63
2023/08/22 07:32:02;;;;;;;2.92;1.80;;;;;;;42.61;16.72;100758.41;5029881;28;20241;-63
2023/08/22 07:34:30;;;;;;;8.00;1.90;;;;;;;42.27;17.13;100747.78;5030646;28;20629;-62
2023/08/22 07:36:58;;;;;;;5.70;2.00;;;;;;;42.05;17.18;100745.25;5030420;28;20206;-63
2023/08/22 07:39:28;;;;;;;4.63;1.92;;;;;;;41.94;17.38;100748.56;5029451;28;20198;-62
2023/08/22 07:41:56;;;;;;;5.90;2.08;;;;;;;40.26;18.10;100750.59;5018222;28;20198;-64
2023/08/22 07:44:24;;;;;;;4.18;1.83;;;;;;;39.42;19.81;100741.38;5030566;28;20216;-67
2023/08/22 07:46:52;;;;;;;3.25;1.63;;;;;;;39.08;19.96;100745.50;5016948;28;20217;-63
2023/08/22 07:49:20;;;;;;;4.93;1.95;;;;;;;38.92;19.98;100740.28;5029791;28;20237;-68
2023/08/22 07:51:48;;;;;;;3.95;1.70;;;;;;;39.44;20.08;100744.69;5030257;28;20209;-63
2023/08/22 07:54:16;;;;;;;3.75;1.27;;;;;;;39.76;19.19;100740.72;5028839;28;20828;-65
2023/08/22 07:56:45;;;;;;;3.28;1.27;;;;;;;40.14;18.90;100741.34;5029798;28;20559;-66
2023/08/22 07:59:14;;;;;;;5.20;1.55;;;;;;;40.36;18.62;100744.84;5020692;28;20292;-64
2023/08/22 08:01:42;;;;;;;4.00;1.73;;;;;;;40.75;18.75;100738.91;5030034;28;20210;-62
2023/08/22 08:04:11;;;;;;;5.65;1.67;;;;;;;41.64;17.49;100742.66;5030204;28;20230;-62
2023/08/22 08:06:39;;;;;;;4.15;1.73;;;;;;;42.08;16.95;100741.28;5030177;28;20237;-64
2023/08/22 08:09:07;;;;;;;2.75;1.15;;;;;;;41.65;16.49;100745.19;5030503;28;20551;-63
2023/08/22 08:11:46;;;;;;;3.65;1.42;;;;;;;40.26;17.93;100745.19;5030516;28;20719;-64
2023/08/22 08:14:14;;;;;;;3.38;1.45;;;;;;;40.07;18.88;100751.22;5029849;28;20723;-63
2023/08/22 08:16:43;;;;;;;3.58;1.60;;;;;;;40.11;18.67;100739.00;5030375;28;20209;-64
2023/08/22 08:19:13;;;;;;;4.68;1.70;;;;;;;40.44;18.15;100741.19;5030202;28;20199;-63
2023/08/22 08:21:41;;;;;;;2.90;1.42;;;;;;;41.22;17.53;100740.00;5030094;28;20206;-65
2023/08/22 08:24:11;;;;;;;3.65;1.45;;;;;;;41.83;16.77;100732.91;5030207;28;20212;-64
2023/08/22 08:26:39;;;;;;;5.03;1.42;;;;;;;42.06;16.60;100740.69;5030278;28;20206;-64
2023/08/22 08:29:08;;;;;;;4.65;1.40;;;;;;;41.82;16.35;100733.94;5029333;28;20249;-65
2023/08/22 08:31:36;;;;;;;2.70;1.20;;;;;;;41.55;16.37;100744.72;5029968;28;20237;-64
2023/08/22 08:34:05;;;;;;;3.45;1.45;;;;;;;41.61;16.50;100743.06;5030123;28;20218;-63
2023/08/22 08:36:33;;;;;;;3.45;1.50;;;;;;;41.62;16.40;100740.19;5032106;28;20237;-64
2023/08/22 08:39:02;;;;;;;1.90;1.50;;;;;;;41.52;16.26;100745.13;5034208;28;20548;-65
2023/08/22 08:41:34;;;;;;;4.32;1.30;;;;;;;40.74;16.93;100750.75;5033680;28;20198;-63
2023/08/22 08:44:03;;;;;;;4.68;1.50;;;;;;;40.24;17.43;100747.22;5033402;28;20210;-64
2023/08/22 08:46:34;;;;;;;2.30;1.40;;;;;;;40.62;17.50;100743.38;5033312;28;20210;-62
2023/08/22 08:49:05;;;;;;;3.60;1.40;;;;;;;40.62;17.27;100744.25;5023600;28;20689;-62
2023/08/22 08:51:34;;;;;;;2.50;1.10;;;;;;;40.00;17.22;100743.06;5030001;28;20241;-63
2023/08/22 08:54:03;;;;;;;2.45;1.25;;;;;;;39.13;18.66;100745.75;5033375;28;20206;-63
2023/08/22 08:56:31;;;;;;;4.57;1.52;;;;;;;38.17;19.05;100748.19;5033400;28;20280;-62
2023/08/22 08:58:59;;;;;;;2.78;1.33;;;;;;;37.53;19.92;100744.91;5032461;28;20203;-62
2023/08/22 09:01:27;;;;;;;2.20;1.20;;;;;;;37.25;20.24;100741.81;5032959;28;20223;-63
2023/08/22 09:03:57;;;;;;;3.47;1.55;;;;;;;37.07;20.42;100733.16;5033162;28;20289;-64
2023/08/22 09:06:25;;;;;;;3.97;1.55;;;;;;;37.00;21.11;100733.84;5033412;28;20694;-62
2023/08/22 09:09:05;;;;;;;3.83;1.38;;;;;;;36.77;20.88;100738.25;5032792;28;20708;-62
2023/08/22 09:11:33;;;;;;;2.75;1.20;;;;;;;36.63;20.19;100730.88;5032906;28;20226;-63
2023/08/22 09:14:01;;;;;;;3.33;1.15;;;;;;;37.09;19.73;100723.06;5032609;28;20229;-63
2023/08/22 09:16:30;;;;;;;3.83;1.00;;;;;;;37.34;19.14;100721.97;5033079;28;20571;-62
2023/08/22 09:19:00;;;;;;;3.13;1.10;;;;;;;37.36;18.80;100722.59;5018750;28;20252;-63
2023/08/22 09:21:29;;;;;;;2.58;1.08;;;;;;;37.63;19.09;100720.47;5033103;28;20207;-64
2023/08/22 09:24:07;;;;;;;3.28;1.63;;;;;;;37.90;19.04;100719.97;5029342;28;20206;-64
2023/08/22 09:26:35;;;;;;;2.00;0.90;;;;;;;38.06;18.49;100713.63;5024245;28;20605;-62
2023/08/22 09:29:06;;;;;;;2.63;1.20;;;;;;;37.82;18.53;100713.81;5031256;28;20226;-63
2023/08/22 09:31:35;;;;;;;2.15;0.98;;;;;;;37.35;19.22;100704.81;5018893;28;20253;-62
2023/08/22 09:34:12;;;;;;;1.65;1.10;;;;;;;36.84;19.48;100701.63;5032525;28;20202;-63
2023/08/22 09:36:45;;;;;;;7.03;1.30;;;;;;;36.23;20.66;100714.66;5032778;28;20696;-62
2023/08/22 09:39:16;;;;;;;4.68;1.30;;;;;;;35.88;20.39;100704.19;5032823;28;20736;-66
2023/08/22 09:41:44;;;;;;;2.53;0.90;;;;;;;35.37;21.57;100698.88;5018970;28;20673;-63
2023/08/22 09:44:12;;;;;;;2.63;1.20;;;;;;;34.83;22.09;100700.94;5032493;28;20199;-63
2023/08/22 09:46:42;;;;;;;3.47;0.98;;;;;;;33.99;22.89;100704.19;5032336;28;20661;-62
2023/08/22 09:49:15;;;;;;;3.35;0.98;;;;;;;33.45;23.67;100709.44;5032331;28;20211;-63
2023/08/22 09:51:44;;;;;;;2.90;1.30;;;;;;;33.13;24.25;100710.69;5031955;28;20310;-61
2023/08/22 09:54:14;;;;;;;1.58;1.20;;;;;;;32.93;24.70;100709.09;5032314;28;20203;-61
2023/08/22 09:56:42;;;;;;;1.80;1.05;;;;;;;32.81;24.19;100700.44;5031570;28;20329;-67
2023/08/22 09:59:12;;;;;;;4.38;1.20;;;;;;;32.56;24.45;100693.88;5021801;28;20364;-61
2023/08/22 10:01:40;;;;;;;2.50;1.30;;;;;;;32.49;23.87;100691.94;5032103;28;20203;-62
2023/08/22 10:04:12;;;;;;;2.30;1.08;;;;;;;32.98;23.61;100687.31;5032031;28;20308;-62
2023/08/22 10:06:42;;;;;;;4.18;1.25;;;;;;;33.54;22.94;100681.81;5018205;28;20207;-65
2023/08/22 10:09:15;;;;;;;2.88;1.10;;;;;;;34.12;22.21;100676.03;5032142;28;20657;-63
2023/08/22 10:11:48;;;;;;;3.22;0.80;;;;;;;34.70;21.24;100676.47;5031979;28;20757;-62
2023/08/22 10:14:22;;;;;;;2.03;1.00;;;;;;;34.89;21.14;100672.72;5031958;28;20245;-61
2023/08/22 10:16:50;;;;;;;2.63;0.80;;;;;;;34.91;20.55;100673.38;5031730;28;20203;-63
2023/08/22 10:19:20;;;;;;;2.72;1.00;;;;;;;35.12;19.83;100665.78;5024926;28;20638;-62
2023/08/22 10:21:50;;;;;;;1.98;0.80;;;;;;;35.35;20.00;100676.78;5025868;28;20205;-62
2023/08/22 10:24:28;;;;;;;4.00;1.15;;;;;;;35.44;19.61;100686.50;5031425;28;20210;-65
2023/08/22 10:27:02;;;;;;;3.80;1.30;;;;;;;35.43;19.81;100675.94;5030203;28;20300;-63
2023/08/22 10:29:34;;;;;;;1.50;0.80;;;;;;;35.60;19.88;100666.13;5030892;28;20206;-62
2023/08/22 10:32:20;;;;;;;1.90;1.02;;;;;;;36.12;19.62;100660.47;5031316;28;20245;-62
2023/08/22 10:35:22;;;;;;;5.05;0.88;;;;;;;36.60;19.18;100661.41;5031324;28;20206;-64
2023/08/22 10:37:53;;;;;;;1.65;1.00;;;;;;;37.15;18.39;100660.53;5031328;28;20206;-63
2023/08/22 10:40:32;;;;;;;2.83;1.08;;;;;;;36.94;18.66;100653.91;5031284;28;20297;-62
2023/08/22 10:43:12;;;;;;;2.45;1.10;;;;;;;36.56;19.65;100654.72;5017604;28;20210;-62
2023/08/22 10:45:49;;;;;;;3.72;1.00;;;;;;;36.71;19.16;100652.97;5031262;28;20281;-61
2023/08/22 10:48:19;;;;;;;2.05;0.80;;;;;;;36.87;18.75;100642.19;5031075;28;20198;-64
2023/08/22 10:50:49;;;;;;;2.03;0.98;;;;;;;37.00;18.78;100647.84;5031500;28;20712;-62
2023/08/22 10:53:21;;;;;;;1.65;0.90;;;;;;;36.75;18.25;100647.13;5031170;28;20317;-64
2023/08/22 10:55:50;;;;;;;1.48;0.90;;;;;;;36.51;18.29;100653.38;5031049;28;20202;-63
2023/08/22 10:58:39;;;;;;;4.50;1.73;;;;;;;36.54;18.69;100646.84;5029218;28;20203;-61
2023/08/22 11:01:13;;;;;;;1.30;0.88;;;;;;;36.58;18.70;100634.75;5022772;28;20203;-62
2023/08/22 11:03:42;;;;;;;1.70;1.20;;;;;;;36.52;18.97;100641.63;5031230;28;20314;-65
2023/08/22 11:06:15;;;;;;;3.72;1.50;;;;;;;36.37;19.31;100637.94;5031022;28;20229;-61
2023/08/22 11:08:44;;;;;;;2.05;0.82;;;;;;;35.81;19.84;100642.34;5031087;28;20679;-63
2023/08/22 11:11:14;;;;;;;1.58;1.10;;;;;;;35.33;20.47;100635.88;5031070;28;20559;-62
2023/08/22 11:13:44;;;;;;;1.27;0.90;;;;;;;35.23;20.57;100640.53;5031028;28;20258;-63
2023/08/22 11:16:15;;;;;;;1.98;0.90;;;;;;;35.08;20.15;100641.16;5030945;28;20203;-63
2023/08/22 11:18:43;;;;;;;5.85;1.25;;;;;;;34.87;20.95;100638.03;5030590;28;20214;-64
2023/08/22 11:21:11;;;;;;;1.90;0.90;;;;;;;34.69;21.12;100634.59;5030890;28;20221;-61
2023/08/22 11:23:42;;;;;;;1.85;0.85;;;;;;;34.27;21.51;100633.50;5030670;28;20202;-62
2023/08/22 11:26:12;;;;;;;1.55;0.90;;;;;;;33.75;22.51;100637.94;5030825;28;20202;-63
2023/08/22 11:28:42;;;;;;;2.85;1.15;;;;;;;33.14;22.99;100637.63;5030467;28;20685;-61
2023/08/22 11:31:16;;;;;;;3.13;1.02;;;;;;;32.69;23.20;100630.34;5030067;28;20254;-63
2023/08/22 11:33:47;;;;;;;4.47;1.35;;;;;;;31.95;24.73;100640.88;5030678;28;20255;-62